sensor_id;sensor_type;location;lat;lon;timestamp;P1;P2;P0
62054;PMS5003;48653;51.742;-1.256;2023-07-24T00:01:45;2;2;
62054;PMS5003;48653;51.742;-1.256;2023-07-24T00:04:10;2;2;
62054;PMS5003;48653;51.742;-1.256;2023-07-24T00:06:35;2;2;
62054;PMS5003;48653;51.742;-1.256;2023-07-24T00:09:00;4;4;
62054;PMS5003;48653;51.742;-1.256;2023-07-24T00:11:25;3;3;
62054;PMS5003;48653;51.742;-1.256;2023-07-24T00:13:51;2;2;
62054;PMS5003;48653;51.742;-1.256;2023-07-24T00:16:16;4;3;
62054;PMS5003;48653;51.742;-1.256;2023-07-24T00:18:41;2;2;
62054;PMS5003;48653;51.742;-1.256;2023-07-24T00:21:06;3;2;
62054;PMS5003;48653;51.742;-1.256;2023-07-24T00:23:31;4;4;
62054;PMS5003;48653;51.742;-1.256;2023-07-24T00:25:56;2;2;
62054;PMS5003;48653;51.742;-1.256;2023-07-24T00:28:21;1;1;
62054;PMS5003;48653;51.742;-1.256;2023-07-24T00:30:46;2;2;
62054;PMS5003;48653;51.742;-1.256;2023-07-24T00:33:11;1;1;
62054;PMS5003;48653;51.742;-1.256;2023-07-24T00:35:36;2;2;
62054;PMS5003;48653;51.742;-1.256;2023-07-24T00:38:01;3;3;
62054;PMS5003;48653;51.742;-1.256;2023-07-24T00:40:26;2;2;
62054;PMS5003;48653;51.742;-1.256;2023-07-24T00:42:51;6;3;
62054;PMS5003;48653;51.742;-1.256;2023-07-24T00:45:16;4;4;
62054;PMS5003;48653;51.742;-1.256;2023-07-24T00:47:42;2;2;
62054;PMS5003;48653;51.742;-1.256;2023-07-24T00:50:07;3;3;
62054;PMS5003;48653;51.742;-1.256;2023-07-24T00:52:32;3;2;
62054;PMS5003;48653;51.742;-1.256;2023-07-24T00:54:57;2;2;
62054;PMS5003;48653;51.742;-1.256;2023-07-24T00:57:22;2;2;
62054;PMS5003;48653;51.742;-1.256;2023-07-24T00:59:47;3;3;
62054;PMS5003;48653;51.742;-1.256;2023-07-24T01:02:12;3;3;
62054;PMS5003;48653;51.742;-1.256;2023-07-24T01:04:37;6;2;
62054;PMS5003;48653;51.742;-1.256;2023-07-24T01:07:02;4;4;
62054;PMS5003;48653;51.742;-1.256;2023-07-24T01:09:27;3;1;
62054;PMS5003;48653;51.742;-1.256;2023-07-24T01:11:54;3;2;
62054;PMS5003;48653;51.742;-1.256;2023-07-24T01:14:19;3;3;
62054;PMS5003;48653;51.742;-1.256;2023-07-24T01:16:42;5;2;
62054;PMS5003;48653;51.742;-1.256;2023-07-24T01:19:11;4;4;
62054;PMS5003;48653;51.742;-1.256;2023-07-24T01:21:33;3;2;
62054;PMS5003;48653;51.742;-1.256;2023-07-24T01:23:59;2;2;
62054;PMS5003;48653;51.742;-1.256;2023-07-24T01:26:23;4;3;
62054;PMS5003;48653;51.742;-1.256;2023-07-24T01:28:48;3;3;
62054;PMS5003;48653;51.742;-1.256;2023-07-24T01:31:13;2;2;
62054;PMS5003;48653;51.742;-1.256;2023-07-24T01:33:38;2;1;
62054;PMS5003;48653;51.742;-1.256;2023-07-24T01:36:03;4;2;
62054;PMS5003;48653;51.742;-1.256;2023-07-24T01:38:28;1;1;
62054;PMS5003;48653;51.742;-1.256;2023-07-24T01:40:54;5;3;
62054;PMS5003;48653;51.742;-1.256;2023-07-24T01:43:18;3;2;
62054;PMS5003;48653;51.742;-1.256;2023-07-24T01:45:43;2;1;
62054;PMS5003;48653;51.742;-1.256;2023-07-24T01:48:08;3;3;
62054;PMS5003;48653;51.742;-1.256;2023-07-24T01:50:33;2;2;
62054;PMS5003;48653;51.742;-1.256;2023-07-24T01:52:58;2;1;
62054;PMS5003;48653;51.742;-1.256;2023-07-24T01:55:24;3;3;
62054;PMS5003;48653;51.742;-1.256;2023-07-24T01:57:49;3;3;
62054;PMS5003;48653;51.742;-1.256;2023-07-24T02:00:14;3;3;
62054;PMS5003;48653;51.742;-1.256;2023-07-24T02:02:39;3;3;
62054;PMS5003;48653;51.742;-1.256;2023-07-24T02:05:04;1;1;
62054;PMS5003;48653;51.742;-1.256;2023-07-24T02:07:29;4;3;
62054;PMS5003;48653;51.742;-1.256;2023-07-24T02:09:54;6;4;
62054;PMS5003;48653;51.742;-1.256;2023-07-24T02:12:19;4;4;
62054;PMS5003;48653;51.742;-1.256;2023-07-24T02:14:44;2;2;
62054;PMS5003;48653;51.742;-1.256;2023-07-24T02:17:09;3;3;
62054;PMS5003;48653;51.742;-1.256;2023-07-24T02:19:34;2;2;
62054;PMS5003;48653;51.742;-1.256;2023-07-24T02:21:59;2;2;
62054;PMS5003;48653;51.742;-1.256;2023-07-24T02:24:24;3;2;
62054;PMS5003;48653;51.742;-1.256;2023-07-24T02:26:49;4;2;
62054;PMS5003;48653;51.742;-1.256;2023-07-24T02:29:14;2;2;
62054;PMS5003;48653;51.742;-1.256;2023-07-24T02:31:39;2;1;
62054;PMS5003;48653;51.742;-1.256;2023-07-24T02:34:05;1;1;
62054;PMS5003;48653;51.742;-1.256;2023-07-24T02:36:30;2;2;
62054;PMS5003;48653;51.742;-1.256;2023-07-24T02:38:55;3;3;
62054;PMS5003;48653;51.742;-1.256;2023-07-24T02:41:20;5;3;
62054;PMS5003;48653;51.742;-1.256;2023-07-24T02:43:45;2;2;
62054;PMS5003;48653;51.742;-1.256;2023-07-24T02:46:10;4;2;
62054;PMS5003;48653;51.742;-1.256;2023-07-24T02:48:35;1;1;
62054;PMS5003;48653;51.742;-1.256;2023-07-24T02:51:00;3;2;
62054;PMS5003;48653;51.742;-1.256;2023-07-24T02:53:25;2;0;
62054;PMS5003;48653;51.742;-1.256;2023-07-24T02:55:50;4;2;
62054;PMS5003;48653;51.742;-1.256;2023-07-24T02:58:15;1;1;
62054;PMS5003;48653;51.742;-1.256;2023-07-24T03:00:40;3;3;
62054;PMS5003;48653;51.742;-1.256;2023-07-24T03:03:05;1;1;
62054;PMS5003;48653;51.742;-1.256;2023-07-24T03:05:30;4;2;
62054;PMS5003;48653;51.742;-1.256;2023-07-24T03:07:56;2;2;
62054;PMS5003;48653;51.742;-1.256;2023-07-24T03:10:22;4;4;
62054;PMS5003;48653;51.742;-1.256;2023-07-24T03:12:46;2;2;
62054;PMS5003;48653;51.742;-1.256;2023-07-24T03:15:11;3;3;
62054;PMS5003;48653;51.742;-1.256;2023-07-24T03:17:36;2;2;
62054;PMS5003;48653;51.742;-1.256;2023-07-24T03:22:26;2;1;
62054;PMS5003;48653;51.742;-1.256;2023-07-24T03:24:51;2;2;
62054;PMS5003;48653;51.742;-1.256;2023-07-24T03:27:16;5;3;
62054;PMS5003;48653;51.742;-1.256;2023-07-24T03:29:41;0;0;
62054;PMS5003;48653;51.742;-1.256;2023-07-24T03:32:06;4;3;
62054;PMS5003;48653;51.742;-1.256;2023-07-24T03:34:31;7;3;
62054;PMS5003;48653;51.742;-1.256;2023-07-24T03:36:56;3;3;
62054;PMS5003;48653;51.742;-1.256;2023-07-24T03:39:21;2;2;
62054;PMS5003;48653;51.742;-1.256;2023-07-24T03:41:46;4;3;
62054;PMS5003;48653;51.742;-1.256;2023-07-24T03:44:12;3;3;
62054;PMS5003;48653;51.742;-1.256;2023-07-24T03:46:37;4;3;
62054;PMS5003;48653;51.742;-1.256;2023-07-24T03:49:02;3;2;
62054;PMS5003;48653;51.742;-1.256;2023-07-24T03:51:27;5;5;
62054;PMS5003;48653;51.742;-1.256;2023-07-24T03:53:52;3;3;
62054;PMS5003;48653;51.742;-1.256;2023-07-24T03:56:17;1;1;
62054;PMS5003;48653;51.742;-1.256;2023-07-24T03:58:42;4;2;
62054;PMS5003;48653;51.742;-1.256;2023-07-24T04:01:07;3;3;
62054;PMS5003;48653;51.742;-1.256;2023-07-24T04:03:32;5;2;
62054;PMS5003;48653;51.742;-1.256;2023-07-24T04:05:57;1;1;
62054;PMS5003;48653;51.742;-1.256;2023-07-24T04:08:22;3;3;
62054;PMS5003;48653;51.742;-1.256;2023-07-24T04:10:48;1;1;
62054;PMS5003;48653;51.742;-1.256;2023-07-24T04:13:13;2;2;
62054;PMS5003;48653;51.742;-1.256;2023-07-24T04:15:38;3;3;
62054;PMS5003;48653;51.742;-1.256;2023-07-24T04:18:03;2;2;
62054;PMS5003;48653;51.742;-1.256;2023-07-24T04:20:28;2;2;
62054;PMS5003;48653;51.742;-1.256;2023-07-24T04:22:53;5;3;
62054;PMS5003;48653;51.742;-1.256;2023-07-24T04:25:18;3;3;
62054;PMS5003;48653;51.742;-1.256;2023-07-24T04:27:44;4;2;
62054;PMS5003;48653;51.742;-1.256;2023-07-24T04:30:10;3;3;
62054;PMS5003;48653;51.742;-1.256;2023-07-24T04:32:35;3;3;
62054;PMS5003;48653;51.742;-1.256;2023-07-24T04:35:00;4;3;
62054;PMS5003;48653;51.742;-1.256;2023-07-24T04:37:25;5;3;
62054;PMS5003;48653;51.742;-1.256;2023-07-24T04:39:50;3;3;
62054;PMS5003;48653;51.742;-1.256;2023-07-24T04:42:15;3;3;
62054;PMS5003;48653;51.742;-1.256;2023-07-24T04:44:41;1;1;
62054;PMS5003;48653;51.742;-1.256;2023-07-24T04:47:06;3;3;
62054;PMS5003;48653;51.742;-1.256;2023-07-24T04:49:31;5;3;
62054;PMS5003;48653;51.742;-1.256;2023-07-24T04:51:56;4;4;
62054;PMS5003;48653;51.742;-1.256;2023-07-24T04:54:21;4;3;
62054;PMS5003;48653;51.742;-1.256;2023-07-24T04:56:46;4;4;
62054;PMS5003;48653;51.742;-1.256;2023-07-24T04:59:12;6;4;
62054;PMS5003;48653;51.742;-1.256;2023-07-24T05:01:36;3;2;
62054;PMS5003;48653;51.742;-1.256;2023-07-24T05:04:02;3;3;
62054;PMS5003;48653;51.742;-1.256;2023-07-24T05:06:27;2;2;
62054;PMS5003;48653;51.742;-1.256;2023-07-24T05:08:52;5;4;
62054;PMS5003;48653;51.742;-1.256;2023-07-24T05:11:17;7;7;
62054;PMS5003;48653;51.742;-1.256;2023-07-24T05:13:42;4;4;
62054;PMS5003;48653;51.742;-1.256;2023-07-24T05:16:07;6;6;
62054;PMS5003;48653;51.742;-1.256;2023-07-24T05:18:33;4;4;
62054;PMS5003;48653;51.742;-1.256;2023-07-24T05:20:58;8;6;
62054;PMS5003;48653;51.742;-1.256;2023-07-24T05:23:23;7;6;
62054;PMS5003;48653;51.742;-1.256;2023-07-24T05:28:13;6;5;
62054;PMS5003;48653;51.742;-1.256;2023-07-24T05:30:38;2;2;
62054;PMS5003;48653;51.742;-1.256;2023-07-24T05:33:03;0;0;
62054;PMS5003;48653;51.742;-1.256;2023-07-24T05:35:28;2;2;
62054;PMS5003;48653;51.742;-1.256;2023-07-24T05:37:53;0;0;
62054;PMS5003;48653;51.742;-1.256;2023-07-24T05:40:18;0;0;
62054;PMS5003;48653;51.742;-1.256;2023-07-24T05:42:43;1;0;
62054;PMS5003;48653;51.742;-1.256;2023-07-24T05:45:09;0;0;
62054;PMS5003;48653;51.742;-1.256;2023-07-24T05:47:33;0;0;
62054;PMS5003;48653;51.742;-1.256;2023-07-24T05:49:59;0;0;
62054;PMS5003;48653;51.742;-1.256;2023-07-24T05:52:24;0;0;
62054;PMS5003;48653;51.742;-1.256;2023-07-24T05:54:49;0;0;
62054;PMS5003;48653;51.742;-1.256;2023-07-24T05:57:14;0;0;
62054;PMS5003;48653;51.742;-1.256;2023-07-24T05:59:39;0;0;
62054;PMS5003;48653;51.742;-1.256;2023-07-24T06:02:04;0;0;
62054;PMS5003;48653;51.742;-1.256;2023-07-24T06:04:29;0;0;
62054;PMS5003;48653;51.742;-1.256;2023-07-24T06:06:54;1;0;
62054;PMS5003;48653;51.742;-1.256;2023-07-24T06:09:20;0;0;
62054;PMS5003;48653;51.742;-1.256;2023-07-24T06:11:45;0;0;
62054;PMS5003;48653;51.742;-1.256;2023-07-24T06:14:10;1;0;
62054;PMS5003;48653;51.742;-1.256;2023-07-24T06:16:35;1;1;
62054;PMS5003;48653;51.742;-1.256;2023-07-24T06:19:00;0;0;
62054;PMS5003;48653;51.742;-1.256;2023-07-24T06:21:25;0;0;
62054;PMS5003;48653;51.742;-1.256;2023-07-24T06:23:50;0;0;
62054;PMS5003;48653;51.742;-1.256;2023-07-24T06:26:15;0;0;
62054;PMS5003;48653;51.742;-1.256;2023-07-24T06:28:40;0;0;
62054;PMS5003;48653;51.742;-1.256;2023-07-24T06:31:05;0;0;
62054;PMS5003;48653;51.742;-1.256;2023-07-24T06:33:30;1;1;
62054;PMS5003;48653;51.742;-1.256;2023-07-24T06:35:55;0;0;
62054;PMS5003;48653;51.742;-1.256;2023-07-24T06:38:20;0;0;
62054;PMS5003;48653;51.742;-1.256;2023-07-24T06:40:45;0;0;
62054;PMS5003;48653;51.742;-1.256;2023-07-24T06:43:11;1;0;
62054;PMS5003;48653;51.742;-1.256;2023-07-24T06:45:36;0;0;
62054;PMS5003;48653;51.742;-1.256;2023-07-24T06:48:01;0;0;
62054;PMS5003;48653;51.742;-1.256;2023-07-24T06:50:26;0;0;
62054;PMS5003;48653;51.742;-1.256;2023-07-24T06:52:51;0;0;
62054;PMS5003;48653;51.742;-1.256;2023-07-24T06:55:16;0;0;
62054;PMS5003;48653;51.742;-1.256;2023-07-24T06:57:41;0;0;
62054;PMS5003;48653;51.742;-1.256;2023-07-24T07:00:07;0;0;
62054;PMS5003;48653;51.742;-1.256;2023-07-24T07:02:31;0;0;
62054;PMS5003;48653;51.742;-1.256;2023-07-24T07:04:56;0;0;
62054;PMS5003;48653;51.742;-1.256;2023-07-24T07:07:21;0;0;
62054;PMS5003;48653;51.742;-1.256;2023-07-24T07:09:46;0;0;
62054;PMS5003;48653;51.742;-1.256;2023-07-24T07:12:11;0;0;
62054;PMS5003;48653;51.742;-1.256;2023-07-24T07:14:37;0;0;
62054;PMS5003;48653;51.742;-1.256;2023-07-24T07:17:02;0;0;
62054;PMS5003;48653;51.742;-1.256;2023-07-24T07:19:27;0;0;
62054;PMS5003;48653;51.742;-1.256;2023-07-24T07:21:52;0;0;
62054;PMS5003;48653;51.742;-1.256;2023-07-24T07:24:17;0;0;
62054;PMS5003;48653;51.742;-1.256;2023-07-24T07:26:42;0;0;
62054;PMS5003;48653;51.742;-1.256;2023-07-24T07:29:07;0;0;
62054;PMS5003;48653;51.742;-1.256;2023-07-24T07:31:32;0;0;
62054;PMS5003;48653;51.742;-1.256;2023-07-24T07:33:57;0;0;
62054;PMS5003;48653;51.742;-1.256;2023-07-24T07:36:22;0;0;
62054;PMS5003;48653;51.742;-1.256;2023-07-24T07:38:47;0;0;
62054;PMS5003;48653;51.742;-1.256;2023-07-24T07:41:12;0;0;
62054;PMS5003;48653;51.742;-1.256;2023-07-24T07:43:37;0;0;
62054;PMS5003;48653;51.742;-1.256;2023-07-24T07:46:03;0;0;
62054;PMS5003;48653;51.742;-1.256;2023-07-24T07:48:28;1;1;
62054;PMS5003;48653;51.742;-1.256;2023-07-24T07:50:53;1;1;
62054;PMS5003;48653;51.742;-1.256;2023-07-24T07:53:18;0;0;
62054;PMS5003;48653;51.742;-1.256;2023-07-24T07:55:43;0;0;
62054;PMS5003;48653;51.742;-1.256;2023-07-24T07:58:08;0;0;
62054;PMS5003;48653;51.742;-1.256;2023-07-24T08:00:34;1;1;
62054;PMS5003;48653;51.742;-1.256;2023-07-24T08:02:58;0;0;
62054;PMS5003;48653;51.742;-1.256;2023-07-24T08:05:23;0;0;
62054;PMS5003;48653;51.742;-1.256;2023-07-24T08:07:48;1;1;
62054;PMS5003;48653;51.742;-1.256;2023-07-24T08:10:13;1;1;
62054;PMS5003;48653;51.742;-1.256;2023-07-24T08:12:38;2;0;
62054;PMS5003;48653;51.742;-1.256;2023-07-24T08:15:04;1;1;
62054;PMS5003;48653;51.742;-1.256;2023-07-24T08:17:29;1;1;
62054;PMS5003;48653;51.742;-1.256;2023-07-24T08:19:54;0;0;
62054;PMS5003;48653;51.742;-1.256;2023-07-24T08:22:19;0;0;
62054;PMS5003;48653;51.742;-1.256;2023-07-24T08:24:44;1;1;
62054;PMS5003;48653;51.742;-1.256;2023-07-24T08:27:09;2;0;
62054;PMS5003;48653;51.742;-1.256;2023-07-24T08:29:34;0;0;
62054;PMS5003;48653;51.742;-1.256;2023-07-24T08:31:59;0;0;
62054;PMS5003;48653;51.742;-1.256;2023-07-24T08:34:24;0;0;
62054;PMS5003;48653;51.742;-1.256;2023-07-24T08:36:49;0;0;
62054;PMS5003;48653;51.742;-1.256;2023-07-24T08:39:14;1;1;
62054;PMS5003;48653;51.742;-1.256;2023-07-24T08:41:39;1;1;
62054;PMS5003;48653;51.742;-1.256;2023-07-24T08:44:04;0;0;
62054;PMS5003;48653;51.742;-1.256;2023-07-24T08:46:30;2;1;
62054;PMS5003;48653;51.742;-1.256;2023-07-24T08:48:55;0;0;
62054;PMS5003;48653;51.742;-1.256;2023-07-24T08:51:20;0;0;
62054;PMS5003;48653;51.742;-1.256;2023-07-24T08:53:45;0;0;
62054;PMS5003;48653;51.742;-1.256;2023-07-24T08:56:11;1;1;
62054;PMS5003;48653;51.742;-1.256;2023-07-24T08:58:35;0;0;
62054;PMS5003;48653;51.742;-1.256;2023-07-24T09:01:01;1;1;
62054;PMS5003;48653;51.742;-1.256;2023-07-24T09:03:25;0;0;
62054;PMS5003;48653;51.742;-1.256;2023-07-24T09:05:50;0;0;
62054;PMS5003;48653;51.742;-1.256;2023-07-24T09:08:15;0;0;
62054;PMS5003;48653;51.742;-1.256;2023-07-24T09:10:40;0;0;
62054;PMS5003;48653;51.742;-1.256;2023-07-24T09:13:05;0;0;
62054;PMS5003;48653;51.742;-1.256;2023-07-24T09:17:56;3;2;
62054;PMS5003;48653;51.742;-1.256;2023-07-24T09:20:21;0;0;
62054;PMS5003;48653;51.742;-1.256;2023-07-24T09:22:49;2;0;
62054;PMS5003;48653;51.742;-1.256;2023-07-24T09:25:11;1;0;
62054;PMS5003;48653;51.742;-1.256;2023-07-24T09:27:36;0;0;
62054;PMS5003;48653;51.742;-1.256;2023-07-24T09:30:01;2;1;
62054;PMS5003;48653;51.742;-1.256;2023-07-24T09:32:26;0;0;
62054;PMS5003;48653;51.742;-1.256;2023-07-24T09:34:51;1;1;
62054;PMS5003;48653;51.742;-1.256;2023-07-24T09:39:41;1;1;
62054;PMS5003;48653;51.742;-1.256;2023-07-24T09:42:06;0;0;
62054;PMS5003;48653;51.742;-1.256;2023-07-24T09:44:31;0;0;
62054;PMS5003;48653;51.742;-1.256;2023-07-24T09:46:56;0;0;
62054;PMS5003;48653;51.742;-1.256;2023-07-24T09:49:21;2;2;
62054;PMS5003;48653;51.742;-1.256;2023-07-24T09:51:47;1;1;
62054;PMS5003;48653;51.742;-1.256;2023-07-24T09:54:15;2;2;
62054;PMS5003;48653;51.742;-1.256;2023-07-24T09:56:37;1;1;
62054;PMS5003;48653;51.742;-1.256;2023-07-24T09:59:02;1;1;
62054;PMS5003;48653;51.742;-1.256;2023-07-24T10:01:27;5;4;
62054;PMS5003;48653;51.742;-1.256;2023-07-24T10:03:52;3;2;
62054;PMS5003;48653;51.742;-1.256;2023-07-24T10:06:18;2;2;
62054;PMS5003;48653;51.742;-1.256;2023-07-24T10:08:43;1;1;
62054;PMS5003;48653;51.742;-1.256;2023-07-24T10:11:08;1;1;
62054;PMS5003;48653;51.742;-1.256;2023-07-24T10:13:33;2;2;
62054;PMS5003;48653;51.742;-1.256;2023-07-24T10:15:58;1;1;
62054;PMS5003;48653;51.742;-1.256;2023-07-24T10:18:25;5;2;
62054;PMS5003;48653;51.742;-1.256;2023-07-24T10:20:48;0;0;
62054;PMS5003;48653;51.742;-1.256;2023-07-24T10:23:16;0;0;
62054;PMS5003;48653;51.742;-1.256;2023-07-24T10:25:39;1;1;
62054;PMS5003;48653;51.742;-1.256;2023-07-24T10:28:04;1;1;
62054;PMS5003;48653;51.742;-1.256;2023-07-24T10:30:28;0;0;
62054;PMS5003;48653;51.742;-1.256;2023-07-24T10:32:54;0;0;
62054;PMS5003;48653;51.742;-1.256;2023-07-24T10:35:18;1;1;
62054;PMS5003;48653;51.742;-1.256;2023-07-24T10:37:43;0;0;
62054;PMS5003;48653;51.742;-1.256;2023-07-24T10:40:18;0;0;
62054;PMS5003;48653;51.742;-1.256;2023-07-24T10:42:34;0;0;
62054;PMS5003;48653;51.742;-1.256;2023-07-24T10:45:04;0;0;
62054;PMS5003;48653;51.742;-1.256;2023-07-24T10:47:24;0;0;
62054;PMS5003;48653;51.742;-1.256;2023-07-24T10:49:49;3;1;
62054;PMS5003;48653;51.742;-1.256;2023-07-24T10:52:14;0;0;
62054;PMS5003;48653;51.742;-1.256;2023-07-24T10:54:39;1;1;
62054;PMS5003;48653;51.742;-1.256;2023-07-24T10:57:04;3;2;
62054;PMS5003;48653;51.742;-1.256;2023-07-24T10:59:36;2;2;
62054;PMS5003;48653;51.742;-1.256;2023-07-24T11:01:54;3;2;
62054;PMS5003;48653;51.742;-1.256;2023-07-24T11:04:19;2;2;
62054;PMS5003;48653;51.742;-1.256;2023-07-24T11:06:44;2;2;
62054;PMS5003;48653;51.742;-1.256;2023-07-24T11:09:09;1;1;
62054;PMS5003;48653;51.742;-1.256;2023-07-24T11:11:35;1;1;
62054;PMS5003;48653;51.742;-1.256;2023-07-24T11:14:00;1;1;
62054;PMS5003;48653;51.742;-1.256;2023-07-24T11:16:25;1;1;
62054;PMS5003;48653;51.742;-1.256;2023-07-24T11:18:50;1;1;
62054;PMS5003;48653;51.742;-1.256;2023-07-24T11:21:15;2;1;
62054;PMS5003;48653;51.742;-1.256;2023-07-24T11:23:44;1;1;
62054;PMS5003;48653;51.742;-1.256;2023-07-24T11:26:05;1;1;
62054;PMS5003;48653;51.742;-1.256;2023-07-24T11:28:38;1;1;
62054;PMS5003;48653;51.742;-1.256;2023-07-24T11:30:55;1;1;
62054;PMS5003;48653;51.742;-1.256;2023-07-24T11:33:20;2;2;
62054;PMS5003;48653;51.742;-1.256;2023-07-24T11:35:45;2;2;
62054;PMS5003;48653;51.742;-1.256;2023-07-24T11:38:10;4;4;
62054;PMS5003;48653;51.742;-1.256;2023-07-24T11:40:37;2;2;
62054;PMS5003;48653;51.742;-1.256;2023-07-24T11:43:01;2;2;
62054;PMS5003;48653;51.742;-1.256;2023-07-24T11:45:25;3;2;
62054;PMS5003;48653;51.742;-1.256;2023-07-24T11:47:51;1;1;
62054;PMS5003;48653;51.742;-1.256;2023-07-24T11:50:16;1;1;
62054;PMS5003;48653;51.742;-1.256;2023-07-24T11:52:41;3;3;
62054;PMS5003;48653;51.742;-1.256;2023-07-24T11:55:06;3;3;
62054;PMS5003;48653;51.742;-1.256;2023-07-24T11:57:31;1;1;
62054;PMS5003;48653;51.742;-1.256;2023-07-24T11:59:56;2;2;
62054;PMS5003;48653;51.742;-1.256;2023-07-24T12:02:21;3;3;
62054;PMS5003;48653;51.742;-1.256;2023-07-24T12:04:46;2;2;
62054;PMS5003;48653;51.742;-1.256;2023-07-24T12:07:11;5;4;
62054;PMS5003;48653;51.742;-1.256;2023-07-24T12:09:36;3;3;
62054;PMS5003;48653;51.742;-1.256;2023-07-24T12:12:03;2;2;
62054;PMS5003;48653;51.742;-1.256;2023-07-24T12:14:26;3;3;
62054;PMS5003;48653;51.742;-1.256;2023-07-24T12:19:16;6;4;
62054;PMS5003;48653;51.742;-1.256;2023-07-24T12:21:41;5;5;
62054;PMS5003;48653;51.742;-1.256;2023-07-24T12:24:07;4;4;
62054;PMS5003;48653;51.742;-1.256;2023-07-24T12:26:32;4;4;
62054;PMS5003;48653;51.742;-1.256;2023-07-24T12:28:57;3;3;
62054;PMS5003;48653;51.742;-1.256;2023-07-24T12:31:22;5;5;
62054;PMS5003;48653;51.742;-1.256;2023-07-24T12:33:47;6;6;
62054;PMS5003;48653;51.742;-1.256;2023-07-24T12:36:12;5;5;
62054;PMS5003;48653;51.742;-1.256;2023-07-24T12:38:38;5;5;
62054;PMS5003;48653;51.742;-1.256;2023-07-24T12:41:03;3;3;
62054;PMS5003;48653;51.742;-1.256;2023-07-24T12:43:28;9;4;
62054;PMS5003;48653;51.742;-1.256;2023-07-24T12:45:53;4;4;
62054;PMS5003;48653;51.742;-1.256;2023-07-24T12:48:18;6;4;
62054;PMS5003;48653;51.742;-1.256;2023-07-24T12:50:43;4;4;
62054;PMS5003;48653;51.742;-1.256;2023-07-24T12:53:08;3;3;
62054;PMS5003;48653;51.742;-1.256;2023-07-24T12:55:33;3;3;
62054;PMS5003;48653;51.742;-1.256;2023-07-24T12:57:58;6;5;
62054;PMS5003;48653;51.742;-1.256;2023-07-24T13:00:23;3;3;
62054;PMS5003;48653;51.742;-1.256;2023-07-24T13:02:48;3;3;
62054;PMS5003;48653;51.742;-1.256;2023-07-24T13:05:13;2;2;
62054;PMS5003;48653;51.742;-1.256;2023-07-24T13:07:38;6;3;
62054;PMS5003;48653;51.742;-1.256;2023-07-24T13:10:04;5;3;
62054;PMS5003;48653;51.742;-1.256;2023-07-24T13:12:28;4;3;
62054;PMS5003;48653;51.742;-1.256;2023-07-24T13:14:53;3;3;
62054;PMS5003;48653;51.742;-1.256;2023-07-24T13:17:18;3;3;
62054;PMS5003;48653;51.742;-1.256;2023-07-24T13:19:43;4;4;
62054;PMS5003;48653;51.742;-1.256;2023-07-24T13:22:09;6;5;
62054;PMS5003;48653;51.742;-1.256;2023-07-24T13:24:35;3;3;
62054;PMS5003;48653;51.742;-1.256;2023-07-24T13:27:00;4;4;
62054;PMS5003;48653;51.742;-1.256;2023-07-24T13:29:25;4;4;
62054;PMS5003;48653;51.742;-1.256;2023-07-24T13:31:50;5;5;
62054;PMS5003;48653;51.742;-1.256;2023-07-24T13:34:15;4;4;
62054;PMS5003;48653;51.742;-1.256;2023-07-24T13:36:40;4;4;
62054;PMS5003;48653;51.742;-1.256;2023-07-24T13:39:05;3;3;
62054;PMS5003;48653;51.742;-1.256;2023-07-24T13:41:30;3;3;
62054;PMS5003;48653;51.742;-1.256;2023-07-24T13:43:55;4;4;
62054;PMS5003;48653;51.742;-1.256;2023-07-24T13:46:20;3;3;
62054;PMS5003;48653;51.742;-1.256;2023-07-24T13:48:45;5;4;
62054;PMS5003;48653;51.742;-1.256;2023-07-24T13:51:10;7;4;
62054;PMS5003;48653;51.742;-1.256;2023-07-24T13:53:36;6;4;
62054;PMS5003;48653;51.742;-1.256;2023-07-24T13:56:01;5;4;
62054;PMS5003;48653;51.742;-1.256;2023-07-24T13:58:26;7;4;
62054;PMS5003;48653;51.742;-1.256;2023-07-24T14:00:51;4;4;
62054;PMS5003;48653;51.742;-1.256;2023-07-24T14:03:16;4;4;
62054;PMS5003;48653;51.742;-1.256;2023-07-24T14:05:41;2;2;
62054;PMS5003;48653;51.742;-1.256;2023-07-24T14:08:06;6;2;
62054;PMS5003;48653;51.742;-1.256;2023-07-24T14:10:31;5;4;
62054;PMS5003;48653;51.742;-1.256;2023-07-24T14:12:56;4;3;
62054;PMS5003;48653;51.742;-1.256;2023-07-24T14:15:22;4;4;
62054;PMS5003;48653;51.742;-1.256;2023-07-24T14:17:47;5;5;
62054;PMS5003;48653;51.742;-1.256;2023-07-24T14:20:12;5;3;
62054;PMS5003;48653;51.742;-1.256;2023-07-24T14:22:37;3;3;
62054;PMS5003;48653;51.742;-1.256;2023-07-24T14:25:02;5;5;
62054;PMS5003;48653;51.742;-1.256;2023-07-24T14:27:27;4;3;
62054;PMS5003;48653;51.742;-1.256;2023-07-24T14:29:52;4;4;
62054;PMS5003;48653;51.742;-1.256;2023-07-24T14:32:18;6;6;
62054;PMS5003;48653;51.742;-1.256;2023-07-24T14:34:43;6;3;
62054;PMS5003;48653;51.742;-1.256;2023-07-24T14:37:08;6;5;
62054;PMS5003;48653;51.742;-1.256;2023-07-24T14:39:33;5;5;
62054;PMS5003;48653;51.742;-1.256;2023-07-24T14:41:58;8;5;
62054;PMS5003;48653;51.742;-1.256;2023-07-24T14:44:23;6;4;
62054;PMS5003;48653;51.742;-1.256;2023-07-24T14:46:48;4;4;
62054;PMS5003;48653;51.742;-1.256;2023-07-24T14:49:13;6;6;
62054;PMS5003;48653;51.742;-1.256;2023-07-24T14:51:39;6;5;
62054;PMS5003;48653;51.742;-1.256;2023-07-24T14:54:04;6;6;
62054;PMS5003;48653;51.742;-1.256;2023-07-24T14:56:29;4;4;
62054;PMS5003;48653;51.742;-1.256;2023-07-24T14:58:54;7;6;
62054;PMS5003;48653;51.742;-1.256;2023-07-24T15:01:19;4;2;
62054;PMS5003;48653;51.742;-1.256;2023-07-24T15:03:45;6;6;
62054;PMS5003;48653;51.742;-1.256;2023-07-24T15:06:10;4;4;
62054;PMS5003;48653;51.742;-1.256;2023-07-24T15:08:35;3;3;
62054;PMS5003;48653;51.742;-1.256;2023-07-24T15:11:00;5;5;
62054;PMS5003;48653;51.742;-1.256;2023-07-24T15:13:25;5;5;
62054;PMS5003;48653;51.742;-1.256;2023-07-24T15:15:50;6;4;
62054;PMS5003;48653;51.742;-1.256;2023-07-24T15:18:15;7;7;
62054;PMS5003;48653;51.742;-1.256;2023-07-24T15:20:40;5;5;
62054;PMS5003;48653;51.742;-1.256;2023-07-24T15:23:05;6;6;
62054;PMS5003;48653;51.742;-1.256;2023-07-24T15:25:30;6;5;
62054;PMS5003;48653;51.742;-1.256;2023-07-24T15:27:56;7;7;
62054;PMS5003;48653;51.742;-1.256;2023-07-24T15:30:21;5;5;
62054;PMS5003;48653;51.742;-1.256;2023-07-24T15:32:46;7;6;
62054;PMS5003;48653;51.742;-1.256;2023-07-24T15:35:12;5;4;
62054;PMS5003;48653;51.742;-1.256;2023-07-24T15:37:37;7;7;
62054;PMS5003;48653;51.742;-1.256;2023-07-24T15:40:02;7;6;
62054;PMS5003;48653;51.742;-1.256;2023-07-24T15:42:27;5;5;
62054;PMS5003;48653;51.742;-1.256;2023-07-24T15:44:52;3;3;
62054;PMS5003;48653;51.742;-1.256;2023-07-24T15:47:18;4;3;
62054;PMS5003;48653;51.742;-1.256;2023-07-24T15:49:43;6;6;
62054;PMS5003;48653;51.742;-1.256;2023-07-24T15:52:08;6;6;
62054;PMS5003;48653;51.742;-1.256;2023-07-24T15:54:33;6;6;
62054;PMS5003;48653;51.742;-1.256;2023-07-24T15:56:58;5;5;
62054;PMS5003;48653;51.742;-1.256;2023-07-24T15:59:23;8;6;
62054;PMS5003;48653;51.742;-1.256;2023-07-24T16:01:48;8;8;
62054;PMS5003;48653;51.742;-1.256;2023-07-24T16:04:14;6;4;
62054;PMS5003;48653;51.742;-1.256;2023-07-24T16:06:39;6;6;
62054;PMS5003;48653;51.742;-1.256;2023-07-24T16:09:04;5;5;
62054;PMS5003;48653;51.742;-1.256;2023-07-24T16:11:29;7;7;
62054;PMS5003;48653;51.742;-1.256;2023-07-24T16:13:54;5;3;
62054;PMS5003;48653;51.742;-1.256;2023-07-24T16:16:19;2;2;
62054;PMS5003;48653;51.742;-1.256;2023-07-24T16:18:44;3;3;
62054;PMS5003;48653;51.742;-1.256;2023-07-24T16:21:09;3;2;
62054;PMS5003;48653;51.742;-1.256;2023-07-24T16:23:34;5;3;
62054;PMS5003;48653;51.742;-1.256;2023-07-24T16:25:59;5;3;
62054;PMS5003;48653;51.742;-1.256;2023-07-24T16:28:24;0;0;
62054;PMS5003;48653;51.742;-1.256;2023-07-24T16:30:49;4;3;